Asheville Regional Airport

Airport
ICAO code: 
KAVL
IATA Code: 
AVL
Summary
ICAO Region: 
NAM
Territory: 
Location: 
Fletcher, North Carolina
Serving: 
Asheville
Elevation: 
2165 ft
Coordinates: 
Aerial View: 
35° 26' 14.332" N, 82° 32' 25.923" W
Metar
Observation
KAVL 021554Z 34009KT 10SM CLR 15/06 A3006 RMK AO2 SLP171 T01500061
Station
Asheville, Asheville Regional Airport
Date/Time
2021-12-02 15:54:00
Wind direction
340°
Wind speed
09 kts
Lowest cloud amount
n/a
Temperature
15°C
Dew point
6.1°C
Humidity
55%
Weather condition
n/a

Description

Asheville Regional Airport (IATA: AVL) is a Class C airport near Interstate 40 and Interstate 26 in the town of Fletcher, 14 km south of the city of Asheville, in the U.S. state of North Carolina.

Climatology

Humid “subtropical” climate (Köppen climate classification Cfa) - characterized by hot, humid summers and cool winters. Significant amounts of precipitation occur in all seasons in most areas. Winter rainfall (and sometimes snowfall) is associated with large storms that the westerlies steer from west to east. Most summer rainfall occurs during thunderstorms and occasional tropical storms (hurricanes).

Runways

Designator Length Width Surface Rops
16/34 2439 46 ASP Yes/Yes
Airport map: 
Aerial View: 

SKYbrary Partners:

Safety knowledge contributed by: